sensor_id;sensor_type;location;lat;lon;timestamp;temperature;humidity
39665;DHT22;26679;50.872;4.332;2023-12-14T00:02:25;21.30;78.50
39665;DHT22;26679;50.872;4.332;2023-12-14T00:04:50;21.20;78.50
39665;DHT22;26679;50.872;4.332;2023-12-14T00:07:15;21.20;78.50
39665;DHT22;26679;50.872;4.332;2023-12-14T00:09:41;21.20;78.50
39665;DHT22;26679;50.872;4.332;2023-12-14T00:12:07;21.20;78.60
39665;DHT22;26679;50.872;4.332;2023-12-14T00:14:32;21.20;78.60
39665;DHT22;26679;50.872;4.332;2023-12-14T00:16:58;21.10;78.60
39665;DHT22;26679;50.872;4.332;2023-12-14T00:19:24;21.10;78.60
39665;DHT22;26679;50.872;4.332;2023-12-14T00:21:50;21.10;78.60
39665;DHT22;26679;50.872;4.332;2023-12-14T00:24:15;21.10;78.60
39665;DHT22;26679;50.872;4.332;2023-12-14T00:26:40;21.10;78.70
39665;DHT22;26679;50.872;4.332;2023-12-14T00:29:06;21.10;78.70
39665;DHT22;26679;50.872;4.332;2023-12-14T00:31:31;21.10;78.70
39665;DHT22;26679;50.872;4.332;2023-12-14T00:33:57;21.10;78.70
39665;DHT22;26679;50.872;4.332;2023-12-14T00:36:22;21.00;78.70
39665;DHT22;26679;50.872;4.332;2023-12-14T00:38:48;21.00;78.70
39665;DHT22;26679;50.872;4.332;2023-12-14T00:41:13;21.00;78.80
39665;DHT22;26679;50.872;4.332;2023-12-14T00:43:39;21.00;78.80
39665;DHT22;26679;50.872;4.332;2023-12-14T00:46:04;21.00;78.80
39665;DHT22;26679;50.872;4.332;2023-12-14T00:48:30;21.00;78.80
39665;DHT22;26679;50.872;4.332;2023-12-14T00:50:55;21.00;78.90
39665;DHT22;26679;50.872;4.332;2023-12-14T00:53:20;20.90;78.80
39665;DHT22;26679;50.872;4.332;2023-12-14T00:55:46;20.90;78.90
39665;DHT22;26679;50.872;4.332;2023-12-14T00:58:11;20.90;78.90
39665;DHT22;26679;50.872;4.332;2023-12-14T01:00:39;20.90;78.90
39665;DHT22;26679;50.872;4.332;2023-12-14T01:03:05;20.90;78.90
39665;DHT22;26679;50.872;4.332;2023-12-14T01:05:30;20.90;79.00
39665;DHT22;26679;50.872;4.332;2023-12-14T01:07:56;20.80;78.90
39665;DHT22;26679;50.872;4.332;2023-12-14T01:10:21;20.80;79.00
39665;DHT22;26679;50.872;4.332;2023-12-14T01:12:47;20.80;79.00
39665;DHT22;26679;50.872;4.332;2023-12-14T01:15:12;20.80;79.00
39665;DHT22;26679;50.872;4.332;2023-12-14T01:17:38;20.80;79.00
39665;DHT22;26679;50.872;4.332;2023-12-14T01:20:05;20.80;79.00
39665;DHT22;26679;50.872;4.332;2023-12-14T01:22:31;20.80;79.00
39665;DHT22;26679;50.872;4.332;2023-12-14T01:24:57;20.80;79.00
39665;DHT22;26679;50.872;4.332;2023-12-14T01:27:22;20.80;79.00
39665;DHT22;26679;50.872;4.332;2023-12-14T01:29:48;20.80;79.10
39665;DHT22;26679;50.872;4.332;2023-12-14T01:32:13;20.70;79.00
39665;DHT22;26679;50.872;4.332;2023-12-14T01:34:39;20.70;79.10
39665;DHT22;26679;50.872;4.332;2023-12-14T01:37:05;20.70;79.10
39665;DHT22;26679;50.872;4.332;2023-12-14T01:39:30;20.70;79.10
39665;DHT22;26679;50.872;4.332;2023-12-14T01:41:56;20.70;79.10
39665;DHT22;26679;50.872;4.332;2023-12-14T01:44:21;20.70;79.10
39665;DHT22;26679;50.872;4.332;2023-12-14T01:46:47;20.70;79.20
39665;DHT22;26679;50.872;4.332;2023-12-14T01:49:12;20.70;79.20
39665;DHT22;26679;50.872;4.332;2023-12-14T01:51:38;20.70;79.20
39665;DHT22;26679;50.872;4.332;2023-12-14T01:54:03;20.70;79.20
39665;DHT22;26679;50.872;4.332;2023-12-14T01:56:28;20.60;79.20
39665;DHT22;26679;50.872;4.332;2023-12-14T01:58:54;20.60;79.20
39665;DHT22;26679;50.872;4.332;2023-12-14T02:01:25;20.60;79.30
39665;DHT22;26679;50.872;4.332;2023-12-14T02:03:51;20.60;79.30
39665;DHT22;26679;50.872;4.332;2023-12-14T02:06:17;20.60;79.30
39665;DHT22;26679;50.872;4.332;2023-12-14T02:08:43;20.60;79.30
39665;DHT22;26679;50.872;4.332;2023-12-14T02:11:08;20.60;79.30
39665;DHT22;26679;50.872;4.332;2023-12-14T02:13:34;20.60;79.30
39665;DHT22;26679;50.872;4.332;2023-12-14T02:16:00;20.50;79.30
39665;DHT22;26679;50.872;4.332;2023-12-14T02:18:25;20.60;79.30
39665;DHT22;26679;50.872;4.332;2023-12-14T02:20:51;20.50;79.30
39665;DHT22;26679;50.872;4.332;2023-12-14T02:23:17;20.50;79.40
39665;DHT22;26679;50.872;4.332;2023-12-14T02:25:42;20.50;79.40
39665;DHT22;26679;50.872;4.332;2023-12-14T02:28:07;20.50;79.40
39665;DHT22;26679;50.872;4.332;2023-12-14T02:30:33;20.50;79.40
39665;DHT22;26679;50.872;4.332;2023-12-14T02:32:58;20.50;79.50
39665;DHT22;26679;50.872;4.332;2023-12-14T02:35:24;20.50;79.50
39665;DHT22;26679;50.872;4.332;2023-12-14T02:37:49;20.50;79.50
39665;DHT22;26679;50.872;4.332;2023-12-14T02:40:15;20.50;79.50
39665;DHT22;26679;50.872;4.332;2023-12-14T02:42:40;20.40;79.50
39665;DHT22;26679;50.872;4.332;2023-12-14T02:45:06;20.50;79.60
39665;DHT22;26679;50.872;4.332;2023-12-14T02:47:32;20.40;79.50
39665;DHT22;26679;50.872;4.332;2023-12-14T02:49:57;20.40;79.50
39665;DHT22;26679;50.872;4.332;2023-12-14T02:52:23;20.40;79.50
39665;DHT22;26679;50.872;4.332;2023-12-14T02:54:48;20.40;79.50
39665;DHT22;26679;50.872;4.332;2023-12-14T02:57:14;20.40;79.60
39665;DHT22;26679;50.872;4.332;2023-12-14T02:59:39;20.40;79.60
39665;DHT22;26679;50.872;4.332;2023-12-14T03:02:05;20.40;79.50
39665;DHT22;26679;50.872;4.332;2023-12-14T03:04:31;20.40;79.50
39665;DHT22;26679;50.872;4.332;2023-12-14T03:06:56;20.30;79.50
39665;DHT22;26679;50.872;4.332;2023-12-14T03:09:22;20.40;79.60
39665;DHT22;26679;50.872;4.332;2023-12-14T03:11:48;20.30;79.50
39665;DHT22;26679;50.872;4.332;2023-12-14T03:14:13;20.40;79.50
39665;DHT22;26679;50.872;4.332;2023-12-14T03:16:39;20.30;79.50
39665;DHT22;26679;50.872;4.332;2023-12-14T03:19:04;20.30;79.50
39665;DHT22;26679;50.872;4.332;2023-12-14T03:21:30;20.30;79.50
39665;DHT22;26679;50.872;4.332;2023-12-14T03:23:56;20.30;79.50
39665;DHT22;26679;50.872;4.332;2023-12-14T03:26:21;20.40;79.50
39665;DHT22;26679;50.872;4.332;2023-12-14T03:28:47;20.40;79.40
39665;DHT22;26679;50.872;4.332;2023-12-14T03:31:12;20.40;79.40
39665;DHT22;26679;50.872;4.332;2023-12-14T03:33:41;20.50;79.40
39665;DHT22;26679;50.872;4.332;2023-12-14T03:36:07;20.50;79.20
39665;DHT22;26679;50.872;4.332;2023-12-14T03:38:33;20.60;79.20
39665;DHT22;26679;50.872;4.332;2023-12-14T03:40:58;20.60;79.10
39665;DHT22;26679;50.872;4.332;2023-12-14T03:43:24;20.70;79.10
39665;DHT22;26679;50.872;4.332;2023-12-14T03:45:49;20.80;79.00
39665;DHT22;26679;50.872;4.332;2023-12-14T03:48:15;20.90;78.90
39665;DHT22;26679;50.872;4.332;2023-12-14T03:50:40;20.90;78.80
39665;DHT22;26679;50.872;4.332;2023-12-14T03:53:06;21.00;78.70
39665;DHT22;26679;50.872;4.332;2023-12-14T03:55:31;21.00;78.60
39665;DHT22;26679;50.872;4.332;2023-12-14T03:57:57;21.10;78.50
39665;DHT22;26679;50.872;4.332;2023-12-14T04:00:22;21.10;78.30
39665;DHT22;26679;50.872;4.332;2023-12-14T04:02:48;21.20;78.30
39665;DHT22;26679;50.872;4.332;2023-12-14T04:05:14;21.20;78.20
39665;DHT22;26679;50.872;4.332;2023-12-14T04:07:39;21.30;78.20
39665;DHT22;26679;50.872;4.332;2023-12-14T04:10:09;21.30;78.00
39665;DHT22;26679;50.872;4.332;2023-12-14T04:12:35;21.40;78.00
39665;DHT22;26679;50.872;4.332;2023-12-14T04:15:01;21.40;77.90
39665;DHT22;26679;50.872;4.332;2023-12-14T04:17:27;21.40;77.90
39665;DHT22;26679;50.872;4.332;2023-12-14T04:19:52;21.40;77.80
39665;DHT22;26679;50.872;4.332;2023-12-14T04:22:18;21.50;77.80
39665;DHT22;26679;50.872;4.332;2023-12-14T04:24:43;21.50;77.70
39665;DHT22;26679;50.872;4.332;2023-12-14T04:27:09;21.50;77.60
39665;DHT22;26679;50.872;4.332;2023-12-14T04:29:34;21.60;77.50
39665;DHT22;26679;50.872;4.332;2023-12-14T04:32:00;21.60;77.40
39665;DHT22;26679;50.872;4.332;2023-12-14T04:34:25;21.60;77.40
39665;DHT22;26679;50.872;4.332;2023-12-14T04:36:51;21.60;77.30
39665;DHT22;26679;50.872;4.332;2023-12-14T04:39:18;21.60;77.20
39665;DHT22;26679;50.872;4.332;2023-12-14T04:41:43;21.60;77.20
39665;DHT22;26679;50.872;4.332;2023-12-14T04:44:09;21.70;77.10
39665;DHT22;26679;50.872;4.332;2023-12-14T04:46:35;21.70;77.10
39665;DHT22;26679;50.872;4.332;2023-12-14T04:49:01;21.70;77.00
39665;DHT22;26679;50.872;4.332;2023-12-14T04:51:26;21.70;76.90
39665;DHT22;26679;50.872;4.332;2023-12-14T04:53:52;21.80;77.00
39665;DHT22;26679;50.872;4.332;2023-12-14T04:56:18;21.80;76.90
39665;DHT22;26679;50.872;4.332;2023-12-14T04:58:43;21.80;76.80
39665;DHT22;26679;50.872;4.332;2023-12-14T05:01:08;21.80;76.80
39665;DHT22;26679;50.872;4.332;2023-12-14T05:03:34;21.80;76.60
39665;DHT22;26679;50.872;4.332;2023-12-14T05:06:00;21.80;76.60
39665;DHT22;26679;50.872;4.332;2023-12-14T05:08:25;21.90;76.70
39665;DHT22;26679;50.872;4.332;2023-12-14T05:10:51;21.90;76.60
39665;DHT22;26679;50.872;4.332;2023-12-14T05:13:16;21.90;76.50
39665;DHT22;26679;50.872;4.332;2023-12-14T05:15:42;21.90;76.50
39665;DHT22;26679;50.872;4.332;2023-12-14T05:18:07;21.90;76.40
39665;DHT22;26679;50.872;4.332;2023-12-14T05:20:34;21.90;76.40
39665;DHT22;26679;50.872;4.332;2023-12-14T05:22:59;21.90;76.40
39665;DHT22;26679;50.872;4.332;2023-12-14T05:25:25;21.90;76.30
39665;DHT22;26679;50.872;4.332;2023-12-14T05:27:50;21.90;76.30
39665;DHT22;26679;50.872;4.332;2023-12-14T05:30:15;21.90;76.30
39665;DHT22;26679;50.872;4.332;2023-12-14T05:32:41;21.90;76.20
39665;DHT22;26679;50.872;4.332;2023-12-14T05:35:07;21.90;76.20
39665;DHT22;26679;50.872;4.332;2023-12-14T05:37:32;22.00;76.70
39665;DHT22;26679;50.872;4.332;2023-12-14T05:39:58;22.00;76.20
39665;DHT22;26679;50.872;4.332;2023-12-14T05:42:23;22.00;76.10
39665;DHT22;26679;50.872;4.332;2023-12-14T05:44:49;22.00;76.10
39665;DHT22;26679;50.872;4.332;2023-12-14T05:47:14;22.00;76.00
39665;DHT22;26679;50.872;4.332;2023-12-14T05:49:43;22.00;76.00
39665;DHT22;26679;50.872;4.332;2023-12-14T05:52:08;22.10;75.90
39665;DHT22;26679;50.872;4.332;2023-12-14T05:54:35;22.00;75.80
39665;DHT22;26679;50.872;4.332;2023-12-14T05:57:01;22.10;75.90
39665;DHT22;26679;50.872;4.332;2023-12-14T05:59:26;22.10;75.80
39665;DHT22;26679;50.872;4.332;2023-12-14T06:01:56;22.10;75.80
39665;DHT22;26679;50.872;4.332;2023-12-14T06:04:22;22.10;75.80
39665;DHT22;26679;50.872;4.332;2023-12-14T06:06:47;22.10;75.70
39665;DHT22;26679;50.872;4.332;2023-12-14T06:09:13;22.10;75.70
39665;DHT22;26679;50.872;4.332;2023-12-14T06:11:38;22.10;75.60
39665;DHT22;26679;50.872;4.332;2023-12-14T06:14:04;22.10;75.50
39665;DHT22;26679;50.872;4.332;2023-12-14T06:16:29;22.10;75.50
39665;DHT22;26679;50.872;4.332;2023-12-14T06:18:54;22.20;75.40
39665;DHT22;26679;50.872;4.332;2023-12-14T06:21:20;22.20;75.40
39665;DHT22;26679;50.872;4.332;2023-12-14T06:23:45;22.20;75.40
39665;DHT22;26679;50.872;4.332;2023-12-14T06:26:11;22.10;75.30
39665;DHT22;26679;50.872;4.332;2023-12-14T06:28:36;22.10;75.30
39665;DHT22;26679;50.872;4.332;2023-12-14T06:31:02;22.10;75.30
39665;DHT22;26679;50.872;4.332;2023-12-14T06:33:27;22.10;75.20
39665;DHT22;26679;50.872;4.332;2023-12-14T06:35:53;22.10;75.20
39665;DHT22;26679;50.872;4.332;2023-12-14T06:38:19;22.10;75.20
39665;DHT22;26679;50.872;4.332;2023-12-14T06:40:44;22.10;75.10
39665;DHT22;26679;50.872;4.332;2023-12-14T06:43:10;22.10;75.10
39665;DHT22;26679;50.872;4.332;2023-12-14T06:45:38;22.10;75.10
39665;DHT22;26679;50.872;4.332;2023-12-14T06:48:04;22.10;75.00
39665;DHT22;26679;50.872;4.332;2023-12-14T06:50:29;22.20;75.00
39665;DHT22;26679;50.872;4.332;2023-12-14T06:52:55;22.20;75.00
39665;DHT22;26679;50.872;4.332;2023-12-14T06:55:20;22.20;74.90
39665;DHT22;26679;50.872;4.332;2023-12-14T06:57:45;22.20;74.90
39665;DHT22;26679;50.872;4.332;2023-12-14T07:00:12;22.20;74.90
39665;DHT22;26679;50.872;4.332;2023-12-14T07:02:38;22.20;74.90
39665;DHT22;26679;50.872;4.332;2023-12-14T07:05:03;22.20;74.80
39665;DHT22;26679;50.872;4.332;2023-12-14T07:07:29;22.20;74.90
39665;DHT22;26679;50.872;4.332;2023-12-14T07:09:54;22.30;74.80
39665;DHT22;26679;50.872;4.332;2023-12-14T07:12:20;22.30;74.70
39665;DHT22;26679;50.872;4.332;2023-12-14T07:14:45;22.30;74.60
39665;DHT22;26679;50.872;4.332;2023-12-14T07:17:11;22.30;74.60
39665;DHT22;26679;50.872;4.332;2023-12-14T07:19:36;22.30;74.40
39665;DHT22;26679;50.872;4.332;2023-12-14T07:22:01;22.30;74.30
39665;DHT22;26679;50.872;4.332;2023-12-14T07:24:27;22.30;74.30
39665;DHT22;26679;50.872;4.332;2023-12-14T07:26:52;22.30;74.20
39665;DHT22;26679;50.872;4.332;2023-12-14T07:29:18;22.20;74.10
39665;DHT22;26679;50.872;4.332;2023-12-14T07:31:43;22.20;74.10
39665;DHT22;26679;50.872;4.332;2023-12-14T07:34:09;22.30;74.10
39665;DHT22;26679;50.872;4.332;2023-12-14T07:36:34;22.20;74.00
39665;DHT22;26679;50.872;4.332;2023-12-14T07:39:00;22.20;74.00
39665;DHT22;26679;50.872;4.332;2023-12-14T07:41:26;22.20;73.90
39665;DHT22;26679;50.872;4.332;2023-12-14T07:43:55;22.20;73.90
39665;DHT22;26679;50.872;4.332;2023-12-14T07:46:20;22.20;73.80
39665;DHT22;26679;50.872;4.332;2023-12-14T07:48:46;22.30;73.80
39665;DHT22;26679;50.872;4.332;2023-12-14T07:51:11;22.30;73.80
39665;DHT22;26679;50.872;4.332;2023-12-14T07:53:37;22.30;73.70
39665;DHT22;26679;50.872;4.332;2023-12-14T07:56:02;22.30;73.70
39665;DHT22;26679;50.872;4.332;2023-12-14T07:58:28;22.30;73.70
39665;DHT22;26679;50.872;4.332;2023-12-14T08:00:54;22.30;73.70
39665;DHT22;26679;50.872;4.332;2023-12-14T08:03:19;22.30;74.20
39665;DHT22;26679;50.872;4.332;2023-12-14T08:05:45;22.30;73.60
39665;DHT22;26679;50.872;4.332;2023-12-14T08:08:10;22.30;73.50
39665;DHT22;26679;50.872;4.332;2023-12-14T08:10:35;22.30;73.40
39665;DHT22;26679;50.872;4.332;2023-12-14T08:13:01;22.30;73.40
39665;DHT22;26679;50.872;4.332;2023-12-14T08:15:26;22.30;73.40
39665;DHT22;26679;50.872;4.332;2023-12-14T08:17:52;22.30;73.40
39665;DHT22;26679;50.872;4.332;2023-12-14T08:20:17;22.30;73.30
39665;DHT22;26679;50.872;4.332;2023-12-14T08:22:43;22.30;73.20
39665;DHT22;26679;50.872;4.332;2023-12-14T08:25:12;22.40;73.30
39665;DHT22;26679;50.872;4.332;2023-12-14T08:27:39;22.30;73.20
39665;DHT22;26679;50.872;4.332;2023-12-14T08:30:04;22.40;73.30
39665;DHT22;26679;50.872;4.332;2023-12-14T08:32:30;22.40;73.30
39665;DHT22;26679;50.872;4.332;2023-12-14T08:34:56;22.50;73.40
39665;DHT22;26679;50.872;4.332;2023-12-14T08:37:21;22.50;73.30
39665;DHT22;26679;50.872;4.332;2023-12-14T08:39:46;22.50;73.20
39665;DHT22;26679;50.872;4.332;2023-12-14T08:42:12;22.50;73.10
39665;DHT22;26679;50.872;4.332;2023-12-14T08:44:40;22.50;73.20
39665;DHT22;26679;50.872;4.332;2023-12-14T08:47:06;22.50;73.20
39665;DHT22;26679;50.872;4.332;2023-12-14T08:49:34;22.50;73.20
39665;DHT22;26679;50.872;4.332;2023-12-14T08:52:00;22.50;73.30
39665;DHT22;26679;50.872;4.332;2023-12-14T08:54:25;22.60;73.30
39665;DHT22;26679;50.872;4.332;2023-12-14T08:56:51;22.60;73.20
39665;DHT22;26679;50.872;4.332;2023-12-14T08:59:17;22.70;73.30
39665;DHT22;26679;50.872;4.332;2023-12-14T09:01:44;22.70;73.20
39665;DHT22;26679;50.872;4.332;2023-12-14T09:04:10;22.80;73.20
39665;DHT22;26679;50.872;4.332;2023-12-14T09:06:35;22.80;73.10
39665;DHT22;26679;50.872;4.332;2023-12-14T09:09:01;22.90;73.10
39665;DHT22;26679;50.872;4.332;2023-12-14T09:11:27;23.00;73.10
39665;DHT22;26679;50.872;4.332;2023-12-14T09:13:53;22.90;72.90
39665;DHT22;26679;50.872;4.332;2023-12-14T09:16:18;22.90;72.90
39665;DHT22;26679;50.872;4.332;2023-12-14T09:18:44;23.00;73.00
39665;DHT22;26679;50.872;4.332;2023-12-14T09:21:09;23.00;72.90
39665;DHT22;26679;50.872;4.332;2023-12-14T09:23:35;23.10;72.90
39665;DHT22;26679;50.872;4.332;2023-12-14T09:26:00;23.00;72.80
39665;DHT22;26679;50.872;4.332;2023-12-14T09:28:26;23.00;72.80
39665;DHT22;26679;50.872;4.332;2023-12-14T09:30:52;23.00;72.60
39665;DHT22;26679;50.872;4.332;2023-12-14T09:33:17;23.00;72.40
39665;DHT22;26679;50.872;4.332;2023-12-14T09:35:43;23.00;72.30
39665;DHT22;26679;50.872;4.332;2023-12-14T09:38:09;22.90;72.20
39665;DHT22;26679;50.872;4.332;2023-12-14T09:40:34;22.90;72.20
39665;DHT22;26679;50.872;4.332;2023-12-14T09:43:00;22.90;72.10
39665;DHT22;26679;50.872;4.332;2023-12-14T09:45:29;22.80;71.90
39665;DHT22;26679;50.872;4.332;2023-12-14T09:47:58;22.80;71.90
39665;DHT22;26679;50.872;4.332;2023-12-14T09:50:24;22.80;71.80
39665;DHT22;26679;50.872;4.332;2023-12-14T09:52:50;22.80;71.70
39665;DHT22;26679;50.872;4.332;2023-12-14T09:55:16;22.70;71.50
39665;DHT22;26679;50.872;4.332;2023-12-14T09:57:42;22.70;71.40
39665;DHT22;26679;50.872;4.332;2023-12-14T10:00:08;22.70;71.30
39665;DHT22;26679;50.872;4.332;2023-12-14T10:02:36;22.70;71.20
39665;DHT22;26679;50.872;4.332;2023-12-14T10:05:01;22.70;71.10
39665;DHT22;26679;50.872;4.332;2023-12-14T10:07:27;22.70;71.00
39665;DHT22;26679;50.872;4.332;2023-12-14T10:09:52;22.70;71.00
39665;DHT22;26679;50.872;4.332;2023-12-14T10:12:18;22.70;71.00
39665;DHT22;26679;50.872;4.332;2023-12-14T10:14:44;22.70;71.00
39665;DHT22;26679;50.872;4.332;2023-12-14T10:17:19;22.70;71.00
39665;DHT22;26679;50.872;4.332;2023-12-14T10:19:45;22.70;70.90
39665;DHT22;26679;50.872;4.332;2023-12-14T10:22:15;22.70;70.90
39665;DHT22;26679;50.872;4.332;2023-12-14T10:24:44;22.80;70.90
39665;DHT22;26679;50.872;4.332;2023-12-14T10:27:10;22.80;70.90
39665;DHT22;26679;50.872;4.332;2023-12-14T10:29:36;22.80;70.90
39665;DHT22;26679;50.872;4.332;2023-12-14T10:32:05;22.80;70.90
39665;DHT22;26679;50.872;4.332;2023-12-14T10:34:32;22.80;70.80
39665;DHT22;26679;50.872;4.332;2023-12-14T10:36:58;22.90;70.90
39665;DHT22;26679;50.872;4.332;2023-12-14T10:39:24;22.90;70.80
39665;DHT22;26679;50.872;4.332;2023-12-14T10:41:51;22.90;70.80
39665;DHT22;26679;50.872;4.332;2023-12-14T10:44:21;22.90;70.80
39665;DHT22;26679;50.872;4.332;2023-12-14T10:46:50;22.90;70.80
39665;DHT22;26679;50.872;4.332;2023-12-14T10:49:17;22.90;70.70
39665;DHT22;26679;50.872;4.332;2023-12-14T10:51:43;23.00;70.70
39665;DHT22;26679;50.872;4.332;2023-12-14T10:54:08;23.00;70.70
39665;DHT22;26679;50.872;4.332;2023-12-14T10:56:34;23.00;70.60
39665;DHT22;26679;50.872;4.332;2023-12-14T10:59:00;23.10;70.70
39665;DHT22;26679;50.872;4.332;2023-12-14T11:01:26;23.10;70.60
39665;DHT22;26679;50.872;4.332;2023-12-14T11:03:55;23.20;70.60
39665;DHT22;26679;50.872;4.332;2023-12-14T11:08:47;23.20;70.50
39665;DHT22;26679;50.872;4.332;2023-12-14T11:11:13;23.10;70.40
39665;DHT22;26679;50.872;4.332;2023-12-14T11:13:46;23.10;70.50
39665;DHT22;26679;50.872;4.332;2023-12-14T11:16:12;23.10;70.50
39665;DHT22;26679;50.872;4.332;2023-12-14T11:18:40;23.10;70.40
39665;DHT22;26679;50.872;4.332;2023-12-14T11:21:06;23.00;70.30
39665;DHT22;26679;50.872;4.332;2023-12-14T11:23:32;23.00;70.30
39665;DHT22;26679;50.872;4.332;2023-12-14T11:26:00;23.00;70.40
39665;DHT22;26679;50.872;4.332;2023-12-14T11:28:28;23.00;70.40
39665;DHT22;26679;50.872;4.332;2023-12-14T11:30:54;23.00;70.30
39665;DHT22;26679;50.872;4.332;2023-12-14T11:33:19;23.00;70.50
39665;DHT22;26679;50.872;4.332;2023-12-14T11:35:45;23.00;70.30
39665;DHT22;26679;50.872;4.332;2023-12-14T11:38:10;23.00;70.30
39665;DHT22;26679;50.872;4.332;2023-12-14T11:40:47;23.00;70.30
39665;DHT22;26679;50.872;4.332;2023-12-14T11:43:14;23.00;70.30
39665;DHT22;26679;50.872;4.332;2023-12-14T11:45:40;23.00;70.40
39665;DHT22;26679;50.872;4.332;2023-12-14T11:48:06;23.00;70.40
39665;DHT22;26679;50.872;4.332;2023-12-14T11:50:32;23.00;70.50
39665;DHT22;26679;50.872;4.332;2023-12-14T11:52:59;22.90;70.50
39665;DHT22;26679;50.872;4.332;2023-12-14T11:55:26;23.00;70.50
39665;DHT22;26679;50.872;4.332;2023-12-14T11:57:51;22.90;70.50
39665;DHT22;26679;50.872;4.332;2023-12-14T12:00:17;22.90;70.60
39665;DHT22;26679;50.872;4.332;2023-12-14T12:02:43;22.90;70.60
39665;DHT22;26679;50.872;4.332;2023-12-14T12:05:08;22.90;70.60
39665;DHT22;26679;50.872;4.332;2023-12-14T12:07:38;22.90;70.70
39665;DHT22;26679;50.872;4.332;2023-12-14T12:10:04;22.80;70.70
39665;DHT22;26679;50.872;4.332;2023-12-14T12:12:33;22.80;70.70
39665;DHT22;26679;50.872;4.332;2023-12-14T12:14:59;22.80;70.80
39665;DHT22;26679;50.872;4.332;2023-12-14T12:17:24;22.80;70.80
39665;DHT22;26679;50.872;4.332;2023-12-14T12:19:50;22.80;70.80
39665;DHT22;26679;50.872;4.332;2023-12-14T12:22:15;22.80;70.80
39665;DHT22;26679;50.872;4.332;2023-12-14T12:24:41;22.80;70.80
39665;DHT22;26679;50.872;4.332;2023-12-14T12:27:06;22.80;70.90
39665;DHT22;26679;50.872;4.332;2023-12-14T12:29:34;22.80;70.90
39665;DHT22;26679;50.872;4.332;2023-12-14T12:31:59;22.70;70.90
39665;DHT22;26679;50.872;4.332;2023-12-14T12:34:25;22.80;70.90
39665;DHT22;26679;50.872;4.332;2023-12-14T12:36:50;22.70;70.90
39665;DHT22;26679;50.872;4.332;2023-12-14T12:39:16;22.80;71.00
39665;DHT22;26679;50.872;4.332;2023-12-14T12:41:42;22.70;71.00
39665;DHT22;26679;50.872;4.332;2023-12-14T12:44:07;22.70;71.00
39665;DHT22;26679;50.872;4.332;2023-12-14T12:46:34;22.70;71.00
39665;DHT22;26679;50.872;4.332;2023-12-14T12:49:03;22.80;71.00
39665;DHT22;26679;50.872;4.332;2023-12-14T12:51:29;22.80;71.00
39665;DHT22;26679;50.872;4.332;2023-12-14T12:53:56;22.80;71.00
39665;DHT22;26679;50.872;4.332;2023-12-14T12:56:23;22.80;71.00
39665;DHT22;26679;50.872;4.332;2023-12-14T12:58:48;22.80;71.00
39665;DHT22;26679;50.872;4.332;2023-12-14T13:01:15;22.80;71.10
39665;DHT22;26679;50.872;4.332;2023-12-14T13:03:40;22.70;71.10
39665;DHT22;26679;50.872;4.332;2023-12-14T13:06:06;22.80;71.20
39665;DHT22;26679;50.872;4.332;2023-12-14T13:08:32;22.70;71.20
39665;DHT22;26679;50.872;4.332;2023-12-14T13:10:57;22.70;71.20
39665;DHT22;26679;50.872;4.332;2023-12-14T13:13:23;22.70;71.20
39665;DHT22;26679;50.872;4.332;2023-12-14T13:15:48;22.70;71.20
39665;DHT22;26679;50.872;4.332;2023-12-14T13:18:14;22.70;71.20
39665;DHT22;26679;50.872;4.332;2023-12-14T13:20:42;22.70;71.20
39665;DHT22;26679;50.872;4.332;2023-12-14T13:23:07;22.70;71.30
39665;DHT22;26679;50.872;4.332;2023-12-14T13:25:33;22.70;71.30
39665;DHT22;26679;50.872;4.332;2023-12-14T13:27:58;22.70;71.40
39665;DHT22;26679;50.872;4.332;2023-12-14T13:30:24;22.70;71.40
39665;DHT22;26679;50.872;4.332;2023-12-14T13:32:50;22.70;71.40
39665;DHT22;26679;50.872;4.332;2023-12-14T13:35:16;22.70;71.40
39665;DHT22;26679;50.872;4.332;2023-12-14T13:37:41;22.70;71.40
39665;DHT22;26679;50.872;4.332;2023-12-14T13:40:07;22.70;71.40
39665;DHT22;26679;50.872;4.332;2023-12-14T13:42:35;22.70;71.40
39665;DHT22;26679;50.872;4.332;2023-12-14T13:45:00;22.70;71.40
39665;DHT22;26679;50.872;4.332;2023-12-14T13:47:26;22.70;71.40
39665;DHT22;26679;50.872;4.332;2023-12-14T13:49:51;22.70;71.40
39665;DHT22;26679;50.872;4.332;2023-12-14T13:52:18;22.70;71.50
39665;DHT22;26679;50.872;4.332;2023-12-14T13:54:43;22.70;71.50
39665;DHT22;26679;50.872;4.332;2023-12-14T13:57:09;22.70;71.50
39665;DHT22;26679;50.872;4.332;2023-12-14T13:59:34;22.70;71.60
39665;DHT22;26679;50.872;4.332;2023-12-14T14:02:00;22.70;71.60
39665;DHT22;26679;50.872;4.332;2023-12-14T14:04:25;22.70;71.70
39665;DHT22;26679;50.872;4.332;2023-12-14T14:06:51;22.70;71.70
39665;DHT22;26679;50.872;4.332;2023-12-14T14:09:16;22.70;71.80
39665;DHT22;26679;50.872;4.332;2023-12-14T14:11:41;22.70;71.80
39665;DHT22;26679;50.872;4.332;2023-12-14T14:14:11;22.70;71.80
39665;DHT22;26679;50.872;4.332;2023-12-14T14:16:36;22.70;71.80
39665;DHT22;26679;50.872;4.332;2023-12-14T14:19:02;22.70;71.80
39665;DHT22;26679;50.872;4.332;2023-12-14T14:21:27;22.70;71.80
39665;DHT22;26679;50.872;4.332;2023-12-14T14:23:53;22.80;71.90
39665;DHT22;26679;50.872;4.332;2023-12-14T14:26:19;22.70;71.90
39665;DHT22;26679;50.872;4.332;2023-12-14T14:28:44;22.70;71.90
39665;DHT22;26679;50.872;4.332;2023-12-14T14:31:09;22.70;71.90
39665;DHT22;26679;50.872;4.332;2023-12-14T14:33:35;22.70;71.90
39665;DHT22;26679;50.872;4.332;2023-12-14T14:36:00;22.70;72.00
39665;DHT22;26679;50.872;4.332;2023-12-14T14:38:30;22.70;72.00
39665;DHT22;26679;50.872;4.332;2023-12-14T14:40:56;22.70;72.10
39665;DHT22;26679;50.872;4.332;2023-12-14T14:43:21;22.70;72.10
39665;DHT22;26679;50.872;4.332;2023-12-14T14:45:48;22.70;72.10
39665;DHT22;26679;50.872;4.332;2023-12-14T14:48:13;22.70;72.10
39665;DHT22;26679;50.872;4.332;2023-12-14T14:50:39;22.70;72.10
39665;DHT22;26679;50.872;4.332;2023-12-14T14:53:04;22.70;72.00
39665;DHT22;26679;50.872;4.332;2023-12-14T14:55:30;22.70;72.00
39665;DHT22;26679;50.872;4.332;2023-12-14T14:57:55;22.70;72.10
39665;DHT22;26679;50.872;4.332;2023-12-14T15:00:21;22.70;72.10
39665;DHT22;26679;50.872;4.332;2023-12-14T15:02:47;22.70;72.10
39665;DHT22;26679;50.872;4.332;2023-12-14T15:05:12;22.70;72.10
39665;DHT22;26679;50.872;4.332;2023-12-14T15:07:38;22.60;72.10
39665;DHT22;26679;50.872;4.332;2023-12-14T15:10:03;22.60;72.10
39665;DHT22;26679;50.872;4.332;2023-12-14T15:12:29;22.60;72.10
39665;DHT22;26679;50.872;4.332;2023-12-14T15:14:55;22.60;72.10
39665;DHT22;26679;50.872;4.332;2023-12-14T15:17:24;22.60;72.10
39665;DHT22;26679;50.872;4.332;2023-12-14T15:19:49;22.50;72.10
39665;DHT22;26679;50.872;4.332;2023-12-14T15:22:15;22.50;72.10
39665;DHT22;26679;50.872;4.332;2023-12-14T15:24:41;22.50;72.10